FAR weather

Hector International Airport
Fargo, North Dakota, United States

Public forecast

Using degrees Fahrenheit for public forecast. Weather courtesy of forecast.io.

METAR (pilot weather report)

Retrieved 2019/05/22 13:53 UTC (1 hour ago):

KFAR 221353Z 06011KT 10SM OVC017 09/07 A2954 RMK AO2 SLP005 T00940072

TAF (pilot weather forecast)

Retrieved 2019/05/22 12:22 UTC (3 hours ago):

TAF KFAR 221120Z 2212/2312 07014G23KT 6SM -SHRA BR OVC015 FM221400 06012G20KT 6SM -SHRA BR OVC009 FM221800 05011G19KT 6SM -SHRA BR OVC010 FM222200 02010KT P6SM OVC008